Time;durP1;ratioP1;P1;durP2;ratioP2;P2;SDS_P1;SDS_P2;PMS_P1;PMS_P2;Temp;Humidity;BMP_temperature;BMP_pressure;BME280_temperature;BME280_humidity;BME280_pressure;Samples;Min_cycle;Max_cycle;Signal;HPM_P1;HPM_P2
2019/09/08 00:00:40;;;;;;;2.8;1.9;;;;;;;;;;;;;
2019/09/08 00:03:02;;;;;;;4.3;2.3;;;;;;;;;;;;;
2019/09/08 00:05:32;;;;;;;5.3;2.6;;;;;;;;;;;;;
2019/09/08 00:07:56;;;;;;;4.6;2.5;;;;;;;;;;;;;
2019/09/08 00:10:18;;;;;;;3.9;2.9;;;;;;;;;;;;;
2019/09/08 00:12:45;;;;;;;6.4;3.3;;;;;;;;;;;;;
2019/09/08 00:15:15;;;;;;;5.1;3.2;;;;;;;;;;;;;
2019/09/08 00:17:37;;;;;;;8.4;3.5;;;;;;;;;;;;;
2019/09/08 00:20:01;;;;;;;7.8;2.9;;;;;;;;;;;;;
2019/09/08 00:22:24;;;;;;;4.2;3;;;;;;;;;;;;;
2019/09/08 00:25:38;;;;;;;5.7;2.8;;;;;;;;;;;;;
2019/09/08 00:30:35;;;;;;;3.2;2.6;;;;;;;;;;;;;
2019/09/08 00:33:03;;;;;;;4.5;2.6;;;;;;;;;;;;;
2019/09/08 00:35:38;;;;;;;4.7;2.3;;;;;;;;;;;;;
2019/09/08 00:38:01;;;;;;;2.9;2.6;;;;;;;;;;;;;
2019/09/08 00:40:31;;;;;;;8.8;2.6;;;;;;;;;;;;;
2019/09/08 00:42:57;;;;;;;2.6;2.4;;;;;;;;;;;;;
2019/09/08 00:45:22;;;;;;;3.3;2.4;;;;;;;;;;;;;
2019/09/08 00:47:54;;;;;;;4.9;2.5;;;;;;;;;;;;;
2019/09/08 00:50:12;;;;;;;4.2;2.2;;;;;;;;;;;;;
2019/09/08 00:52:37;;;;;;;2.2;2;;;;;;;;;;;;;
2019/09/08 00:55:03;;;;;;;2.4;2.1;;;;;;;;;;;;;
2019/09/08 00:57:35;;;;;;;5.5;2.1;;;;;;;;;;;;;
2019/09/08 01:00:09;;;;;;;5;1.8;;;;;;;;;;;;;
2019/09/08 01:02:28;;;;;;;4.7;2.1;;;;;;;;;;;;;
2019/09/08 01:04:59;;;;;;;4.6;2.1;;;;;;;;;;;;;
2019/09/08 01:07:22;;;;;;;4.2;2.4;;;;;;;;;;;;;
2019/09/08 01:12:41;;;;;;;3.4;2.2;;;;;;;;;;;;;
2019/09/08 01:15:06;;;;;;;4.7;2.3;;;;;;;;;;;;;
2019/09/08 01:17:38;;;;;;;3.9;2.1;;;;;;;;;;;;;
2019/09/08 01:22:23;;;;;;;5.2;2.5;;;;;;;;;;;;;
2019/09/08 01:24:51;;;;;;;3.8;2.2;;;;;;;;;;;;;
2019/09/08 01:27:17;;;;;;;2.7;2.1;;;;;;;;;;;;;
2019/09/08 01:29:43;;;;;;;3.1;2.1;;;;;;;;;;;;;
2019/09/08 01:32:12;;;;;;;5.6;2.2;;;;;;;;;;;;;
2019/09/08 01:34:36;;;;;;;4.4;2;;;;;;;;;;;;;
2019/09/08 01:37:01;;;;;;;4.2;2;;;;;;;;;;;;;
2019/09/08 01:39:34;;;;;;;4.1;2;;;;;;;;;;;;;
2019/09/08 01:41:56;;;;;;;2.3;1.9;;;;;;;;;;;;;
2019/09/08 01:44:25;;;;;;;3.9;2.1;;;;;;;;;;;;;
2019/09/08 01:46:51;;;;;;;5.3;2.3;;;;;;;;;;;;;
2019/09/08 01:49:14;;;;;;;6.3;3.3;;;;;;;;;;;;;
2019/09/08 01:51:39;;;;;;;6.4;3.4;;;;;;;;;;;;;
2019/09/08 01:54:08;;;;;;;7.5;2.9;;;;;;;;;;;;;
2019/09/08 01:56:41;;;;;;;5.8;3.4;;;;;;;;;;;;;
2019/09/08 01:59:07;;;;;;;3.9;2.7;;;;;;;;;;;;;
2019/09/08 02:01:39;;;;;;;5.3;2.5;;;;;;;;;;;;;
2019/09/08 02:04:02;;;;;;;4.3;2.8;;;;;;;;;;;;;
2019/09/08 02:06:37;;;;;;;4.8;2.3;;;;;;;;;;;;;
2019/09/08 02:09:05;;;;;;;3.1;2.5;;;;;;;;;;;;;
2019/09/08 02:11:38;;;;;;;4.9;2.5;;;;;;;;;;;;;
2019/09/08 02:14:36;;;;;;;5.6;2.4;;;;;;;;;;;;;
2019/09/08 02:16:25;;;;;;;3.5;2.3;;;;;;;;;;;;;
2019/09/08 02:21:49;;;;;;;2.1;1.9;;;;;;;;;;;;;
2019/09/08 02:24:35;;;;;;;3.9;2.2;;;;;;;;;;;;;
2019/09/08 02:27:04;;;;;;;2.7;1.9;;;;;;;;;;;;;
2019/09/08 02:29:24;;;;;;;2.5;1.7;;;;;;;;;;;;;
2019/09/08 02:31:50;;;;;;;3.3;2;;;;;;;;;;;;;
2019/09/08 02:34:19;;;;;;;2.4;1.8;;;;;;;;;;;;;
2019/09/08 02:36:41;;;;;;;4.5;2.3;;;;;;;;;;;;;
2019/09/08 02:39:05;;;;;;;3.4;2.1;;;;;;;;;;;;;
2019/09/08 02:41:32;;;;;;;2.5;2.1;;;;;;;;;;;;;
2019/09/08 02:43:59;;;;;;;4.6;2.2;;;;;;;;;;;;;
2019/09/08 02:46:28;;;;;;;3;2.2;;;;;;;;;;;;;
2019/09/08 02:48:50;;;;;;;3.6;2.1;;;;;;;;;;;;;
2019/09/08 02:51:16;;;;;;;3.8;2.1;;;;;;;;;;;;;
2019/09/08 02:53:41;;;;;;;4.5;2.1;;;;;;;;;;;;;
2019/09/08 02:56:11;;;;;;;3.9;2;;;;;;;;;;;;;
2019/09/08 02:58:37;;;;;;;3.5;1.8;;;;;;;;;;;;;
2019/09/08 03:01:08;;;;;;;3.5;2.2;;;;;;;;;;;;;
2019/09/08 03:03:34;;;;;;;5.7;2.6;;;;;;;;;;;;;
2019/09/08 03:06:03;;;;;;;6.4;3;;;;;;;;;;;;;
2019/09/08 03:08:27;;;;;;;6.2;4.3;;;;;;;;;;;;;
2019/09/08 03:10:51;;;;;;;5.2;3.2;;;;;;;;;;;;;
2019/09/08 03:13:24;;;;;;;5.7;3.2;;;;;;;;;;;;;
2019/09/08 03:15:51;;;;;;;4.4;2.6;;;;;;;;;;;;;
2019/09/08 03:18:08;;;;;;;2.8;2.1;;;;;;;;;;;;;
2019/09/08 03:20:34;;;;;;;4.8;2.4;;;;;;;;;;;;;
2019/09/08 03:23:02;;;;;;;2.9;2.1;;;;;;;;;;;;;
2019/09/08 03:25:27;;;;;;;4.4;2;;;;;;;;;;;;;
2019/09/08 03:27:56;;;;;;;3.3;2;;;;;;;;;;;;;
2019/09/08 03:30:22;;;;;;;3.8;2.1;;;;;;;;;;;;;
2019/09/08 03:32:47;;;;;;;2.1;1.8;;;;;;;;;;;;;
2019/09/08 03:35:19;;;;;;;6.5;2.2;;;;;;;;;;;;;
2019/09/08 03:37:43;;;;;;;4.1;1.9;;;;;;;;;;;;;
2019/09/08 03:40:10;;;;;;;4.6;2;;;;;;;;;;;;;
2019/09/08 03:42:34;;;;;;;3.8;2.1;;;;;;;;;;;;;
2019/09/08 03:45:02;;;;;;;4;2.1;;;;;;;;;;;;;
2019/09/08 03:47:35;;;;;;;4.8;2.6;;;;;;;;;;;;;
2019/09/08 03:50:02;;;;;;;8.5;3.4;;;;;;;;;;;;;
2019/09/08 03:52:27;;;;;;;6.9;2.9;;;;;;;;;;;;;
2019/09/08 03:54:51;;;;;;;5.2;2.8;;;;;;;;;;;;;
2019/09/08 03:57:15;;;;;;;7.3;3;;;;;;;;;;;;;
2019/09/08 03:59:46;;;;;;;4.4;2.8;;;;;;;;;;;;;
2019/09/08 04:02:37;;;;;;;4.6;2.3;;;;;;;9.97;88.17773;937.9803;;;;
2019/09/08 04:05:03;;;;;;;5.2;2.2;;;;;;;10.11;87.07422;937.9056;;;;
2019/09/08 04:07:29;;;;;;;5.3;2.6;;;;;;;10.08;86.89746;938.1058;;;;
2019/09/08 04:10:00;;;;;;;4.7;2.3;;;;;;;10.07;86.85254;938.1184;;;;
2019/09/08 04:12:33;;;;;;;3.6;2.1;;;;;;;9.9;87.46777;938.211;;;;
2019/09/08 04:14:56;;;;;;;4;2.1;;;;;;;9.9;87.64844;938.2562;;;;
2019/09/08 04:17:27;;;;;;;3.2;2;;;;;;;9.76;87.91699;938.2336;;;;
2019/09/08 04:19:51;;;;;;;5.3;1.9;;;;;;;9.79;88.01563;938.2436;;;;
2019/09/08 04:22:24;;;;;;;5.2;2;;;;;;;9.85;87.8457;938.2676;;;;
2019/09/08 04:25:00;;;;;;;5.5;2.2;;;;;;;9.92;87.96191;938.2637;;;;
2019/09/08 04:27:31;;;;;;;3.1;2.1;;;;;;;10.09;87.23047;938.2475;;;;
2019/09/08 04:30:16;;;;;;;5.2;1.8;;;;;;;10.14;86.92188;938.2695;;;;
2019/09/08 04:32:52;;;;;;;2.9;2.1;;;;;;;10.18;86.44043;938.2813;;;;
2019/09/08 04:35:19;;;;;;;4.2;2.1;;;;;;;10;86.96289;938.2049;;;;
2019/09/08 04:38:15;;;;;;;5.8;2.1;;;;;;;10.08;87.10449;938.2594;;;;
2019/09/08 04:40:42;;;;;;;2.6;1.8;;;;;;;10;86.87207;938.1325;;;;
2019/09/08 04:43:13;;;;;;;3;2.2;;;;;;;10.07;86.875;937.965;;;;
2019/09/08 04:45:42;;;;;;;3.2;2.2;;;;;;;10.29;86.69043;937.9558;;;;
2019/09/08 04:48:16;;;;;;;4.4;2.2;;;;;;;10.33;86.19531;937.9713;;;;
2019/09/08 04:50:46;;;;;;;4.7;2.2;;;;;;;10.16;86.34375;937.942;;;;
2019/09/08 04:53:12;;;;;;;5;1.7;;;;;;;10.04;86.50293;938.01;;;;
2019/09/08 04:55:41;;;;;;;2.9;1.8;;;;;;;9.99;86.87988;938.0385;;;;
2019/09/08 04:58:14;;;;;;;3.8;1.9;;;;;;;9.98;86.96875;938.0488;;;;
2019/09/08 05:00:48;;;;;;;6.5;1.9;;;;;;;10.19;87.10352;937.947;;;;
2019/09/08 05:03:21;;;;;;;3.6;1.8;;;;;;;10.35;86.60059;937.8483;;;;
2019/09/08 05:05:46;;;;;;;2.5;2;;;;;;;10.47;86.02051;937.6674;;;;
2019/09/08 05:08:14;;;;;;;3.4;1.9;;;;;;;10.51;85.65137;937.7536;;;;
2019/09/08 05:10:41;;;;;;;4.3;1.8;;;;;;;10.5;85.51172;937.8205;;;;
2019/09/08 05:13:08;;;;;;;4.1;1.7;;;;;;;10.61;85.34863;937.8651;;;;
2019/09/08 05:15:32;;;;;;;3.5;2;;;;;;;10.49;85.74805;937.9707;;;;
2019/09/08 05:18:00;;;;;;;4.4;1.7;;;;;;;10.45;85.69336;937.8638;;;;
2019/09/08 05:20:34;;;;;;;3.6;1.9;;;;;;;10.61;85.55469;937.7783;;;;
2019/09/08 05:23:01;;;;;;;6.7;2.3;;;;;;;10.63;85.43457;937.7748;;;;
2019/09/08 05:25:25;;;;;;;3.9;2;;;;;;;10.57;85.51367;937.704;;;;
2019/09/08 05:30:24;;;;;;;5.6;2.7;;;;;;;10.74;85.50195;937.5048;;;;
2019/09/08 05:32:56;;;;;;;3.8;2.2;;;;;;;10.61;86.02246;937.3917;;;;
2019/09/08 05:35:26;;;;;;;3.7;2.3;;;;;;;10.68;85.92285;937.3596;;;;
2019/09/08 05:38:03;;;;;;;6;3.5;;;;;;;10.81;86.20117;937.4037;;;;
2019/09/08 05:40:25;;;;;;;6.7;3.2;;;;;;;10.88;85.74707;937.4052;;;;
2019/09/08 05:43:00;;;;;;;6.1;3.3;;;;;;;10.95;84.56152;937.5322;;;;
2019/09/08 05:45:28;;;;;;;7.5;3.6;;;;;;;11.06;84.26074;937.4702;;;;
2019/09/08 05:47:53;;;;;;;15.9;10.9;;;;;;;11.07;84.14844;937.4966;;;;
2019/09/08 05:50:26;;;;;;;9.7;5.5;;;;;;;11.08;84.84863;937.4767;;;;
2019/09/08 05:52:51;;;;;;;7.7;4.1;;;;;;;11.19;84.20703;937.365;;;;
2019/09/08 05:55:22;;;;;;;6.8;4.7;;;;;;;11.2;83.63574;937.4144;;;;
2019/09/08 05:57:56;;;;;;;10.1;5.6;;;;;;;11.15;83.91211;937.5114;;;;
2019/09/08 06:00:23;;;;;;;6.8;4;;;;;;;11.16;84.19043;937.5289;;;;
2019/09/08 06:02:51;;;;;;;13.8;7;;;;;;;11.06;84.57129;937.4249;;;;
2019/09/08 06:05:24;;;;;;;6.8;3.8;;;;;;;;;;;;;
2019/09/08 06:08:16;;;;;;;7;4;;;;;;;;;;;;;
2019/09/08 06:10:28;;;;;;;9;4.8;;;;;;;;;;;;;
2019/09/08 06:13:10;;;;;;;9.6;4.7;;;;;;;;;;;;;
2019/09/08 06:15:35;;;;;;;4.1;2.4;;;;;;;;;;;;;
2019/09/08 06:18:05;;;;;;;2.7;1.9;;;;;;;;;;;;;
2019/09/08 06:20:31;;;;;;;3.6;2;;;;;;;;;;;;;
2019/09/08 06:22:56;;;;;;;3.1;1.9;;;;;;;;;;;;;
2019/09/08 06:25:26;;;;;;;5.1;1.9;;;;;;;;;;;;;
2019/09/08 06:27:47;;;;;;;4.1;2.2;;;;;;;;;;;;;
2019/09/08 06:30:12;;;;;;;4.7;2.3;;;;;;;;;;;;;
2019/09/08 06:32:36;;;;;;;5.1;2.5;;;;;;;;;;;;;
2019/09/08 06:35:03;;;;;;;7.4;2.5;;;;;;;;;;;;;
2019/09/08 06:37:32;;;;;;;4;3.1;;;;;;;;;;;;;
2019/09/08 06:39:52;;;;;;;4.9;3.8;;;;;;;;;;;;;
2019/09/08 06:42:24;;;;;;;5.7;3;;;;;;;;;;;;;
2019/09/08 06:44:49;;;;;;;4.3;2.6;;;;;;;;;;;;;
2019/09/08 06:47:14;;;;;;;3.6;2.4;;;;;;;;;;;;;
2019/09/08 06:49:43;;;;;;;4.8;2.8;;;;;;;;;;;;;
2019/09/08 06:52:06;;;;;;;3.4;1.9;;;;;;;;;;;;;
2019/09/08 06:54:33;;;;;;;2.2;1.9;;;;;;;;;;;;;
2019/09/08 06:56:55;;;;;;;3.3;2.1;;;;;;;;;;;;;
2019/09/08 06:59:25;;;;;;;4;1.8;;;;;;;;;;;;;
2019/09/08 07:01:45;;;;;;;2.8;1.8;;;;;;;;;;;;;
2019/09/08 07:04:14;;;;;;;3.4;1.8;;;;;;;;;;;;;
2019/09/08 07:06:37;;;;;;;3.8;1.9;;;;;;;;;;;;;
2019/09/08 07:09:00;;;;;;;3.2;2;;;;;;;;;;;;;
2019/09/08 07:11:26;;;;;;;4.9;2.3;;;;;;;;;;;;;
2019/09/08 07:13:53;;;;;;;4.3;3.3;;;;;;;;;;;;;
2019/09/08 07:16:21;;;;;;;5.5;3.5;;;;;;;;;;;;;
2019/09/08 07:19:12;;;;;;;4.5;3.7;;;;;;;;;;;;;
2019/09/08 07:21:26;;;;;;;5.8;3.6;;;;;;;;;;;;;
2019/09/08 07:23:51;;;;;;;6.7;3.9;;;;;;;;;;;;;
2019/09/08 07:26:16;;;;;;;5.9;3.1;;;;;;;;;;;;;
2019/09/08 07:28:41;;;;;;;5.4;2.5;;;;;;;;;;;;;
2019/09/08 07:31:09;;;;;;;4.1;2.5;;;;;;;;;;;;;
2019/09/08 07:33:33;;;;;;;5.4;2.9;;;;;;;;;;;;;
2019/09/08 07:35:59;;;;;;;6.7;2.7;;;;;;;;;;;;;
2019/09/08 07:38:27;;;;;;;3.7;2.6;;;;;;;;;;;;;
2019/09/08 07:40:53;;;;;;;4.1;2.4;;;;;;;;;;;;;
2019/09/08 07:43:21;;;;;;;5.5;2.5;;;;;;;;;;;;;
2019/09/08 07:45:47;;;;;;;9;4.4;;;;;;;;;;;;;
2019/09/08 07:48:12;;;;;;;5.7;3.7;;;;;;;;;;;;;
2019/09/08 07:50:36;;;;;;;4.1;2.5;;;;;;;;;;;;;
2019/09/08 07:53:01;;;;;;;7.4;2.7;;;;;;;;;;;;;
2019/09/08 07:55:28;;;;;;;3.7;1.9;;;;;;;;;;;;;
2019/09/08 07:57:55;;;;;;;3.7;2.2;;;;;;;;;;;;;
2019/09/08 08:00:17;;;;;;;4.5;2.6;;;;;;;;;;;;;
2019/09/08 08:02:42;;;;;;;7.3;3.8;;;;;;;;;;;;;
2019/09/08 08:05:14;;;;;;;4.9;2.7;;;;;;;;;;;;;
2019/09/08 08:07:37;;;;;;;2.8;2;;;;;;;;;;;;;
2019/09/08 08:10:02;;;;;;;4.2;2.8;;;;;;;;;;;;;
2019/09/08 08:12:32;;;;;;;5.4;2.7;;;;;;;;;;;;;
2019/09/08 08:14:52;;;;;;;3.3;2.8;;;;;;;;;;;;;
2019/09/08 08:17:18;;;;;;;4.4;3;;;;;;;;;;;;;
2019/09/08 08:19:43;;;;;;;7.1;3.9;;;;;;;;;;;;;
2019/09/08 08:22:15;;;;;;;6.1;3.8;;;;;;;;;;;;;
2019/09/08 08:24:37;;;;;;;6.4;4.1;;;;;;;;;;;;;
2019/09/08 08:27:13;;;;;;;9.5;4.2;;;;;;;;;;;;;
2019/09/08 08:29:38;;;;;;;3.9;3;;;;;;;;;;;;;
2019/09/08 08:32:10;;;;;;;5.7;3.4;;;;;;;;;;;;;
2019/09/08 08:34:39;;;;;;;5.2;3.3;;;;;;;;;;;;;
2019/09/08 08:37:04;;;;;;;8.3;3.9;;;;;;;;;;;;;
2019/09/08 08:39:25;;;;;;;6.2;3.4;;;;;;;;;;;;;
2019/09/08 08:41:51;;;;;;;6.4;3.6;;;;;;;;;;;;;
2019/09/08 08:44:14;;;;;;;5.9;3.5;;;;;;;;;;;;;
2019/09/08 08:46:40;;;;;;;4.2;2.8;;;;;;;;;;;;;
2019/09/08 08:49:13;;;;;;;6;2.8;;;;;;;;;;;;;
2019/09/08 08:51:37;;;;;;;5.8;3;;;;;;;;;;;;;
2019/09/08 08:54:06;;;;;;;5.5;3.4;;;;;;;;;;;;;
2019/09/08 08:56:30;;;;;;;4.8;2.9;;;;;;;;;;;;;
2019/09/08 08:58:56;;;;;;;6.1;2.9;;;;;;;;;;;;;
2019/09/08 09:01:24;;;;;;;4.8;2.7;;;;;;;;;;;;;
2019/09/08 09:03:50;;;;;;;4.8;2.8;;;;;;;;;;;;;
2019/09/08 09:06:26;;;;;;;9.5;5.7;;;;;;;;;;;;;
2019/09/08 09:08:43;;;;;;;11.4;7.2;;;;;;;;;;;;;
2019/09/08 09:11:07;;;;;;;14.9;8.5;;;;;;;;;;;;;
2019/09/08 09:13:33;;;;;;;10.9;7.5;;;;;;;;;;;;;
2019/09/08 09:16:02;;;;;;;11.8;8.1;;;;;;;;;;;;;
2019/09/08 09:18:26;;;;;;;15.2;11.2;;;;;;;;;;;;;
2019/09/08 09:21:12;;;;;;;13.7;7.6;;;;;;;;;;;;;
2019/09/08 09:23:27;;;;;;;8.7;5.6;;;;;;;;;;;;;
2019/09/08 09:25:57;;;;;;;6.4;3.7;;;;;;;;;;;;;
2019/09/08 09:28:18;;;;;;;3.8;2.8;;;;;;;;;;;;;
2019/09/08 09:30:51;;;;;;;4.2;2.6;;;;;;;;;;;;;
2019/09/08 09:33:17;;;;;;;6.1;3.1;;;;;;;;;;;;;
2019/09/08 09:35:41;;;;;;;4.4;2.9;;;;;;;;;;;;;
2019/09/08 09:38:07;;;;;;;5.7;3.4;;;;;;;;;;;;;
2019/09/08 09:40:33;;;;;;;7.6;4.6;;;;;;;;;;;;;
2019/09/08 09:42:57;;;;;;;8.5;4.6;;;;;;;;;;;;;
2019/09/08 09:45:22;;;;;;;6.3;4;;;;;;;;;;;;;
2019/09/08 09:47:47;;;;;;;4.7;3.8;;;;;;;;;;;;;
2019/09/08 09:50:13;;;;;;;6.2;4.3;;;;;;;;;;;;;
2019/09/08 09:53:14;;;;;;;4.5;3.5;;;;;;;;;;;;;
2019/09/08 09:55:26;;;;;;;6.3;4;;;;;;;;;;;;;
2019/09/08 09:57:51;;;;;;;6.8;4.6;;;;;;;;;;;;;
2019/09/08 10:00:16;;;;;;;6.2;4.5;;;;;;;;;;;;;
2019/09/08 10:02:47;;;;;;;8.2;4.9;;;;;;;;;;;;;
2019/09/08 10:07:33;;;;;;;7.3;4.4;;;;;;;;;;;;;
2019/09/08 10:09:57;;;;;;;6.6;4;;;;;;;;;;;;;
2019/09/08 10:12:27;;;;;;;5.1;3.3;;;;;;;;;;;;;
2019/09/08 10:14:48;;;;;;;5.7;3.6;;;;;;;;;;;;;
2019/09/08 10:17:18;;;;;;;5.7;3.7;;;;;;;;;;;;;
2019/09/08 10:19:48;;;;;;;5.7;3.8;;;;;;;;;;;;;
2019/09/08 10:22:12;;;;;;;6.6;3.9;;;;;;;;;;;;;
2019/09/08 10:24:45;;;;;;;8.9;5.2;;;;;;;;;;;;;
2019/09/08 10:27:05;;;;;;;9.7;6;;;;;;;;;;;;;
2019/09/08 10:29:33;;;;;;;9.8;7.1;;;;;;;;;;;;;
2019/09/08 10:31:58;;;;;;;11.5;6;;;;;;;;;;;;;
2019/09/08 10:34:25;;;;;;;11.7;8.4;;;;;;;;;;;;;
2019/09/08 10:36:50;;;;;;;9.9;7.6;;;;;;;;;;;;;
2019/09/08 10:39:17;;;;;;;7;5.2;;;;;;;;;;;;;
2019/09/08 10:41:42;;;;;;;9.5;4.8;;;;;;;;;;;;;
2019/09/08 10:44:12;;;;;;;7.7;5.3;;;;;;;;;;;;;
2019/09/08 10:46:33;;;;;;;6.4;4.5;;;;;;;;;;;;;
2019/09/08 10:48:58;;;;;;;6.1;4.3;;;;;;;;;;;;;
2019/09/08 10:51:23;;;;;;;7.1;3.8;;;;;;;;;;;;;
2019/09/08 10:53:55;;;;;;;5.5;3.9;;;;;;;;;;;;;
2019/09/08 10:56:16;;;;;;;6.6;4.3;;;;;;;;;;;;;
2019/09/08 10:58:39;;;;;;;6.8;4.3;;;;;;;;;;;;;
2019/09/08 11:01:05;;;;;;;5.7;4.1;;;;;;;;;;;;;
2019/09/08 11:03:37;;;;;;;5.2;4.4;;;;;;;;;;;;;
2019/09/08 11:05:57;;;;;;;12.3;6.9;;;;;;;;;;;;;
2019/09/08 11:08:25;;;;;;;8.5;5.8;;;;;;;;;;;;;
2019/09/08 11:10:54;;;;;;;12;9.6;;;;;;;;;;;;;
2019/09/08 11:13:16;;;;;;;17.8;11.2;;;;;;;;;;;;;
2019/09/08 11:15:41;;;;;;;15.1;8.6;;;;;;;;;;;;;
2019/09/08 11:18:15;;;;;;;94.9;65;;;;;;;;;;;;;
2019/09/08 11:20:40;;;;;;;36.3;25.1;;;;;;;;;;;;;
2019/09/08 11:23:19;;;;;;;276.6;181.7;;;;;;;;;;;;;
2019/09/08 11:25:32;;;;;;;334.2;175.5;;;;;;;;;;;;;
2019/09/08 11:27:58;;;;;;;220.7;108.6;;;;;;;;;;;;;
2019/09/08 11:30:25;;;;;;;249.7;120.6;;;;;;;;;;;;;
2019/09/08 11:32:50;;;;;;;6.3;3.5;;;;;;;;;;;;;
2019/09/08 11:35:14;;;;;;;33;23.5;;;;;;;;;;;;;
2019/09/08 11:38:16;;;;;;;71.2;52.3;;;;;;;;;;;;;
2019/09/08 11:40:27;;;;;;;5.9;3.1;;;;;;;;;;;;;
2019/09/08 11:42:49;;;;;;;59.9;40;;;;;;;;;;;;;
2019/09/08 11:45:16;;;;;;;24.1;19.7;;;;;;;;;;;;;
2019/09/08 11:47:46;;;;;;;22.6;17.7;;;;;;;;;;;;;
2019/09/08 11:50:10;;;;;;;12.2;6.9;;;;;;;;;;;;;
2019/09/08 11:52:32;;;;;;;6.9;4.6;;;;;;;;;;;;;
2019/09/08 11:55:08;;;;;;;5.6;2.4;;;;;;;;;;;;;
2019/09/08 11:57:30;;;;;;;3.1;2.1;;;;;;;;;;;;;
2019/09/08 11:59:48;;;;;;;4.5;2.5;;;;;;;;;;;;;
2019/09/08 12:02:14;;;;;;;4.5;3;;;;;;;;;;;;;
2019/09/08 12:04:39;;;;;;;4.8;2.6;;;;;;;;;;;;;
2019/09/08 12:07:08;;;;;;;4.9;3.7;;;;;;;;;;;;;
2019/09/08 12:09:30;;;;;;;7.7;3.4;;;;;;;;;;;;;
2019/09/08 12:11:56;;;;;;;5;3.1;;;;;;;;;;;;;
2019/09/08 12:14:26;;;;;;;4.9;2.5;;;;;;;;;;;;;
2019/09/08 12:16:49;;;;;;;2.1;1.5;;;;;;;;;;;;;
2019/09/08 12:19:14;;;;;;;3.2;1.6;;;;;;;;;;;;;
2019/09/08 12:21:37;;;;;;;2.2;1.2;;;;;;;;;;;;;
2019/09/08 12:24:01;;;;;;;2.2;1.6;;;;;;;;;;;;;
2019/09/08 12:26:31;;;;;;;3.5;1.7;;;;;;;;;;;;;
2019/09/08 12:28:52;;;;;;;5.7;2.1;;;;;;;;;;;;;
2019/09/08 12:31:19;;;;;;;12;10.3;;;;;;;;;;;;;
2019/09/08 12:33:44;;;;;;;12.6;9.2;;;;;;;;;;;;;
2019/09/08 12:36:15;;;;;;;22.1;19.2;;;;;;;;;;;;;
2019/09/08 12:38:35;;;;;;;6.8;4.5;;;;;;;;;;;;;
2019/09/08 12:41:16;;;;;;;4;3.1;;;;;;;;;;;;;
2019/09/08 12:43:42;;;;;;;5.2;3.2;;;;;;;;;;;;;
2019/09/08 12:46:10;;;;;;;3.5;3;;;;;;;;;;;;;
2019/09/08 12:48:32;;;;;;;5.4;3.3;;;;;;;;;;;;;
2019/09/08 12:50:56;;;;;;;4.1;2.9;;;;;;;;;;;;;
2019/09/08 12:53:26;;;;;;;4;2.8;;;;;;;;;;;;;
2019/09/08 12:55:50;;;;;;;4.4;2.7;;;;;;;;;;;;;
2019/09/08 12:58:14;;;;;;;5.6;4.2;;;;;;;;;;;;;
2019/09/08 13:00:40;;;;;;;6.3;4.7;;;;;;;;;;;;;
2019/09/08 13:03:07;;;;;;;5.6;4.1;;;;;;;;;;;;;
2019/09/08 13:05:31;;;;;;;3.5;2.4;;;;;;;;;;;;;
2019/09/08 13:07:58;;;;;;;2.1;1.3;;;;;;;;;;;;;
2019/09/08 13:10:30;;;;;;;1.4;1;;;;;;;;;;;;;
2019/09/08 13:12:51;;;;;;;1.4;1;;;;;;;;;;;;;
2019/09/08 13:15:14;;;;;;;2.1;1.2;;;;;;;;;;;;;
2019/09/08 13:17:40;;;;;;;1.7;1.3;;;;;;;;;;;;;
2019/09/08 13:20:04;;;;;;;2.2;1.4;;;;;;;;;;;;;
2019/09/08 13:22:29;;;;;;;4.6;1.1;;;;;;;;;;;;;
2019/09/08 13:24:56;;;;;;;2.9;1.5;;;;;;;;;;;;;
2019/09/08 13:27:22;;;;;;;3.2;2;;;;;;;;;;;;;
2019/09/08 13:29:45;;;;;;;3;1.6;;;;;;;;;;;;;
2019/09/08 13:32:10;;;;;;;2.6;1.7;;;;;;;;;;;;;
2019/09/08 13:35:14;;;;;;;2.1;1.3;;;;;;;;;;;;;
2019/09/08 13:37:26;;;;;;;1.9;0.9;;;;;;;;;;;;;
2019/09/08 13:39:58;;;;;;;2.1;1.6;;;;;;;;;;;;;
2019/09/08 13:42:25;;;;;;;1.4;1;;;;;;;;;;;;;
2019/09/08 13:44:48;;;;;;;2.8;1.8;;;;;;;;;;;;;
2019/09/08 13:47:14;;;;;;;3.2;1.8;;;;;;;;;;;;;
2019/09/08 13:50:14;;;;;;;2.9;1.3;;;;;;;;;;;;;
2019/09/08 13:52:29;;;;;;;1.9;1;;;;;;;;;;;;;
2019/09/08 13:54:54;;;;;;;1.4;1;;;;;;;;;;;;;
2019/09/08 13:57:25;;;;;;;2.4;1.4;;;;;;;;;;;;;
2019/09/08 13:59:48;;;;;;;4.2;1.8;;;;;;;;;;;;;
2019/09/08 14:02:11;;;;;;;4.8;2.3;;;;;;;;;;;;;
2019/09/08 14:04:38;;;;;;;1.9;1.5;;;;;;;;;;;;;
2019/09/08 14:07:06;;;;;;;2.9;1.5;;;;;;;;;;;;;
2019/09/08 14:09:32;;;;;;;2.3;1.4;;;;;;;;;;;;;
2019/09/08 14:11:55;;;;;;;2.1;1.1;;;;;;;;;;;;;
2019/09/08 14:17:19;;;;;;;2.2;1.4;;;;;;;;;;;;;
2019/09/08 14:19:44;;;;;;;1.5;1.1;;;;;;;;;;;;;
2019/09/08 14:22:10;;;;;;;1.3;1;;;;;;;;;;;;;
2019/09/08 14:24:35;;;;;;;4;1.8;;;;;;;;;;;;;
2019/09/08 14:27:18;;;;;;;1.5;1.2;;;;;;;;;;;;;
2019/09/08 14:29:30;;;;;;;1.5;1.1;;;;;;;;;;;;;
2019/09/08 14:31:54;;;;;;;2.3;1.8;;;;;;;;;;;;;
2019/09/08 14:34:26;;;;;;;3.3;2.1;;;;;;;;;;;;;
2019/09/08 14:36:47;;;;;;;2.4;1.7;;;;;;;;;;;;;
2019/09/08 14:39:10;;;;;;;2;1.5;;;;;;;;;;;;;
2019/09/08 14:41:37;;;;;;;2.7;1.8;;;;;;;;;;;;;
2019/09/08 14:44:01;;;;;;;2.6;1.6;;;;;;;;;;;;;
2019/09/08 14:46:30;;;;;;;1.2;0.9;;;;;;;;;;;;;
2019/09/08 14:49:15;;;;;;;2.3;1.4;;;;;;;;;;;;;
2019/09/08 14:51:36;;;;;;;2.8;1.2;;;;;;;;;;;;;
2019/09/08 14:53:59;;;;;;;2.8;1.6;;;;;;;;;;;;;
2019/09/08 14:56:24;;;;;;;1.6;1.2;;;;;;;;;;;;;
2019/09/08 15:01:18;;;;;;;2.3;1.6;;;;;;;;;;;;;
2019/09/08 15:03:44;;;;;;;2.3;1.1;;;;;;;;;;;;;
2019/09/08 15:06:10;;;;;;;1.5;1;;;;;;;;;;;;;
2019/09/08 15:08:40;;;;;;;1.1;0.7;;;;;;;;;;;;;
2019/09/08 15:11:03;;;;;;;3.6;1.3;;;;;;;;;;;;;
2019/09/08 15:13:30;;;;;;;1.6;1.3;;;;;;;;;;;;;
2019/09/08 15:15:53;;;;;;;1.9;1.3;;;;;;;;;;;;;
2019/09/08 15:18:22;;;;;;;2.2;1.4;;;;;;;;;;;;;
2019/09/08 15:20:49;;;;;;;1.5;1.1;;;;;;;;;;;;;
2019/09/08 15:23:13;;;;;;;4.2;1;;;;;;;;;;;;;
2019/09/08 15:25:38;;;;;;;1;0.8;;;;;;;;;;;;;
2019/09/08 15:28:07;;;;;;;0.9;0.8;;;;;;;;;;;;;
2019/09/08 15:30:32;;;;;;;2.8;1;;;;;;;;;;;;;
2019/09/08 15:32:53;;;;;;;1.5;1.1;;;;;;;;;;;;;
2019/09/08 15:35:18;;;;;;;2.1;1.4;;;;;;;;;;;;;
2019/09/08 15:37:48;;;;;;;2.3;1.5;;;;;;;;;;;;;
2019/09/08 15:40:17;;;;;;;3.7;1.9;;;;;;;;;;;;;
2019/09/08 15:42:44;;;;;;;4.1;2.1;;;;;;;;;;;;;
2019/09/08 15:45:07;;;;;;;2.2;1.6;;;;;;;;;;;;;
2019/09/08 15:48:19;;;;;;;4.3;2;;;;;;;;;;;;;
2019/09/08 15:50:32;;;;;;;2.6;1.6;;;;;;;;;;;;;
2019/09/08 15:52:58;;;;;;;3.1;1.6;;;;;;;;;;;;;
2019/09/08 15:55:23;;;;;;;4.2;2.2;;;;;;;;;;;;;
2019/09/08 15:57:48;;;;;;;4.1;1.8;;;;;;;;;;;;;
2019/09/08 16:00:17;;;;;;;2.6;2;;;;;;;;;;;;;
2019/09/08 16:02:40;;;;;;;3.4;1.8;;;;;;;;;;;;;
2019/09/08 16:05:05;;;;;;;4;1.8;;;;;;;;;;;;;
2019/09/08 16:07:31;;;;;;;2.8;1.6;;;;;;;;;;;;;
2019/09/08 16:09:59;;;;;;;8.7;7.4;;;;;;;;;;;;;
2019/09/08 16:12:24;;;;;;;2.9;2.5;;;;;;;;;;;;;
2019/09/08 16:14:46;;;;;;;2.8;1.9;;;;;;;;;;;;;
2019/09/08 16:17:13;;;;;;;2.6;1.3;;;;;;;;;;;;;
2019/09/08 16:19:37;;;;;;;2.8;1.3;;;;;;;;;;;;;
2019/09/08 16:22:08;;;;;;;7;4.6;;;;;;;;;;;;;
2019/09/08 16:24:27;;;;;;;2;1.2;;;;;;;;;;;;;
2019/09/08 16:29:26;;;;;;;53.1;32.8;;;;;;;;;;;;;
2019/09/08 16:31:45;;;;;;;4.9;3.5;;;;;;;;;;;;;
2019/09/08 16:34:14;;;;;;;16.7;13;;;;;;;;;;;;;
2019/09/08 16:36:36;;;;;;;27.7;23.9;;;;;;;;;;;;;
2019/09/08 16:39:13;;;;;;;22.6;20.3;;;;;;;;;;;;;
2019/09/08 16:41:28;;;;;;;22.8;20.6;;;;;;;;;;;;;
2019/09/08 16:44:00;;;;;;;5.1;3.4;;;;;;;;;;;;;
2019/09/08 16:46:34;;;;;;;3.1;1.7;;;;;;;;;;;;;
2019/09/08 16:48:58;;;;;;;6.6;4.8;;;;;;;;;;;;;
2019/09/08 16:51:29;;;;;;;2.5;2;;;;;;;;;;;;;
2019/09/08 16:54:17;;;;;;;3.1;2.5;;;;;;;;;;;;;
2019/09/08 16:56:47;;;;;;;3.5;2.8;;;;;;;;;;;;;
2019/09/08 16:59:18;;;;;;;4.9;3.4;;;;;;;;;;;;;
2019/09/08 17:01:44;;;;;;;5.4;3.8;;;;;;;;;;;;;
2019/09/08 17:04:06;;;;;;;2.8;2.4;;;;;;;;;;;;;
2019/09/08 17:06:33;;;;;;;4.5;3.7;;;;;;;;;;;;;
2019/09/08 17:08:56;;;;;;;4.3;3.6;;;;;;;;;;;;;
2019/09/08 17:11:23;;;;;;;3.3;2.1;;;;;;;;;;;;;
2019/09/08 17:13:48;;;;;;;3.7;2.2;;;;;;;;;;;;;
2019/09/08 17:16:16;;;;;;;3.5;2.1;;;;;;;;;;;;;
2019/09/08 17:18:36;;;;;;;3;2;;;;;;;;;;;;;
2019/09/08 17:21:18;;;;;;;3.1;2.1;;;;;;;;;;;;;
2019/09/08 17:23:32;;;;;;;5.7;3.9;;;;;;;;;;;;;
2019/09/08 17:25:59;;;;;;;10.9;7.3;;;;;;;;;;;;;
2019/09/08 17:28:23;;;;;;;8;5.8;;;;;;;;;;;;;
2019/09/08 17:33:14;;;;;;;2.6;1.7;;;;;;;;;;;;;
2019/09/08 17:35:40;;;;;;;2;1.4;;;;;;;;;;;;;
2019/09/08 17:38:05;;;;;;;3.1;2.2;;;;;;;;;;;;;
2019/09/08 17:40:30;;;;;;;3.9;2.8;;;;;;;;;;;;;
2019/09/08 17:43:01;;;;;;;2.8;1.9;;;;;;;;;;;;;
2019/09/08 17:45:20;;;;;;;2.7;2.1;;;;;;;;;;;;;
2019/09/08 17:47:46;;;;;;;2.3;1.8;;;;;;;;;;;;;
2019/09/08 17:50:18;;;;;;;2.6;1.6;;;;;;;;;;;;;
2019/09/08 17:52:42;;;;;;;1.9;1.5;;;;;;;;;;;;;
2019/09/08 17:55:09;;;;;;;2;1.2;;;;;;;;;;;;;
2019/09/08 17:57:36;;;;;;;2.5;1.3;;;;;;;;;;;;;
2019/09/08 17:59:58;;;;;;;2.3;1.5;;;;;;;;;;;;;
2019/09/08 18:02:24;;;;;;;3.8;1.7;;;;;;;;;;;;;
2019/09/08 18:04:53;;;;;;;2.9;1.6;;;;;;;;;;;;;
2019/09/08 18:07:16;;;;;;;1.8;1.2;;;;;;;;;;;;;
2019/09/08 18:09:40;;;;;;;1.3;1.1;;;;;;;;;;;;;
2019/09/08 18:12:05;;;;;;;2.4;1.4;;;;;;;;;;;;;
2019/09/08 18:14:30;;;;;;;3.1;2;;;;;;;;;;;;;
2019/09/08 18:16:59;;;;;;;3.9;2.8;;;;;;;;;;;;;
2019/09/08 18:19:23;;;;;;;5.5;2.7;;;;;;;;;;;;;
2019/09/08 18:24:18;;;;;;;2.3;1.6;;;;;;;;;;;;;
2019/09/08 18:26:44;;;;;;;3;1.4;;;;;;;;;;;;;
2019/09/08 18:29:16;;;;;;;4.1;2.2;;;;;;;;;;;;;
2019/09/08 18:31:42;;;;;;;2.7;1.7;;;;;;;;;;;;;
2019/09/08 18:34:14;;;;;;;4.1;2.5;;;;;;;;;;;;;
2019/09/08 18:36:33;;;;;;;11.3;5.7;;;;;;;;;;;;;
2019/09/08 18:39:21;;;;;;;7.9;4.7;;;;;;;;;;;;;
2019/09/08 18:41:49;;;;;;;5;3.5;;;;;;;;;;;;;
2019/09/08 18:44:13;;;;;;;12.5;7.8;;;;;;;;;;;;;
2019/09/08 18:46:36;;;;;;;6.4;5.4;;;;;;;;;;;;;
2019/09/08 18:49:02;;;;;;;6.5;5.8;;;;;;;;;;;;;
2019/09/08 18:51:30;;;;;;;8.2;7;;;;;;;;;;;;;
2019/09/08 18:53:52;;;;;;;4.8;4.3;;;;;;;;;;;;;
2019/09/08 18:56:18;;;;;;;3.3;3;;;;;;;;;;;;;
2019/09/08 18:58:42;;;;;;;7.9;6.4;;;;;;;;;;;;;
2019/09/08 19:01:09;;;;;;;4.6;2.8;;;;;;;;;;;;;
2019/09/08 19:03:38;;;;;;;3.1;2.4;;;;;;;;;;;;;
2019/09/08 19:05:59;;;;;;;2.9;2.1;;;;;;;;;;;;;
2019/09/08 19:08:25;;;;;;;2.5;1.7;;;;;;;;;;;;;
2019/09/08 19:10:50;;;;;;;3.7;1.4;;;;;;;;;;;;;
2019/09/08 19:13:19;;;;;;;2.9;1.9;;;;;;;;;;;;;
2019/09/08 19:15:41;;;;;;;1.8;1.5;;;;;;;;;;;;;
2019/09/08 19:18:09;;;;;;;2.3;1.2;;;;;;;;;;;;;
2019/09/08 19:20:42;;;;;;;1.3;1;;;;;;;;;;;;;
2019/09/08 19:22:59;;;;;;;1.7;1;;;;;;;;;;;;;
2019/09/08 19:25:26;;;;;;;2.7;1.1;;;;;;;;;;;;;
2019/09/08 19:27:49;;;;;;;2.3;1.6;;;;;;;;;;;;;
2019/09/08 19:30:20;;;;;;;2.1;1.2;;;;;;;;;;;;;
2019/09/08 19:32:46;;;;;;;1.9;1.4;;;;;;;;;;;;;
2019/09/08 19:35:19;;;;;;;2.5;1.7;;;;;;;;;;;;;
2019/09/08 19:37:43;;;;;;;3.4;1.7;;;;;;;;;;;;;
2019/09/08 19:40:22;;;;;;;2;1.1;;;;;;;;;;;;;
2019/09/08 19:42:45;;;;;;;1.4;1.1;;;;;;;;;;;;;
2019/09/08 19:45:07;;;;;;;0.9;0.8;;;;;;;;;;;;;
2019/09/08 19:47:34;;;;;;;1.2;1.1;;;;;;;;;;;;;
2019/09/08 19:49:58;;;;;;;2.8;1.8;;;;;;;;;;;;;
2019/09/08 19:52:25;;;;;;;3.2;1.9;;;;;;;;;;;;;
2019/09/08 19:54:50;;;;;;;2.6;1.9;;;;;;;;;;;;;
2019/09/08 19:57:14;;;;;;;1.7;1.5;;;;;;;;;;;;;
2019/09/08 19:59:43;;;;;;;2.5;2.1;;;;;;;;;;;;;
2019/09/08 20:02:08;;;;;;;2.6;1.5;;;;;;;;;;;;;
2019/09/08 20:04:33;;;;;;;5.1;2.4;;;;;;;;;;;;;
2019/09/08 20:06:58;;;;;;;2.7;2;;;;;;;;;;;;;
2019/09/08 20:10:19;;;;;;;4.2;2.2;;;;;;;;;;;;;
2019/09/08 20:11:48;;;;;;;2.9;1.6;;;;;;;;;;;;;
2019/09/08 20:14:25;;;;;;;2.4;1.5;;;;;;;;;;;;;
2019/09/08 20:16:41;;;;;;;9;6.5;;;;;;;;;;;;;
2019/09/08 20:19:07;;;;;;;5.7;3.8;;;;;;;;;;;;;
2019/09/08 20:21:30;;;;;;;4.8;2.2;;;;;;;;;;;;;